sensor_id;sensor_type;location;lat;lon;timestamp;P1;durP1;ratioP1;P2;durP2;ratioP2
16973;SDS011;8603;46.944;7.412;2023-09-30T00:01:08;10.52;;;5.78;;
16973;SDS011;8603;46.944;7.412;2023-09-30T00:07:52;10.60;;;5.43;;
16973;SDS011;8603;46.944;7.412;2023-09-30T00:10:43;11.45;;;6.20;;
16973;SDS011;8603;46.944;7.412;2023-09-30T00:13:15;10.77;;;6.35;;
16973;SDS011;8603;46.944;7.412;2023-09-30T00:15:48;12.77;;;6.85;;
16973;SDS011;8603;46.944;7.412;2023-09-30T00:18:24;13.25;;;7.15;;
16973;SDS011;8603;46.944;7.412;2023-09-30T00:20:53;15.25;;;7.10;;
16973;SDS011;8603;46.944;7.412;2023-09-30T00:23:19;13.85;;;7.35;;
16973;SDS011;8603;46.944;7.412;2023-09-30T00:25:46;12.85;;;6.63;;
16973;SDS011;8603;46.944;7.412;2023-09-30T00:28:13;9.68;;;5.90;;
16973;SDS011;8603;46.944;7.412;2023-09-30T00:30:42;12.93;;;6.93;;
16973;SDS011;8603;46.944;7.412;2023-09-30T00:36:46;11.50;;;6.43;;
16973;SDS011;8603;46.944;7.412;2023-09-30T00:39:12;11.75;;;7.05;;
16973;SDS011;8603;46.944;7.412;2023-09-30T00:41:38;12.02;;;6.38;;
16973;SDS011;8603;46.944;7.412;2023-09-30T00:44:05;10.82;;;6.90;;
16973;SDS011;8603;46.944;7.412;2023-09-30T00:46:32;12.73;;;6.30;;
16973;SDS011;8603;46.944;7.412;2023-09-30T00:52:38;14.30;;;7.05;;
16973;SDS011;8603;46.944;7.412;2023-09-30T00:55:16;14.50;;;7.25;;
16973;SDS011;8603;46.944;7.412;2023-09-30T00:57:52;10.98;;;6.05;;
16973;SDS011;8603;46.944;7.412;2023-09-30T01:00:59;14.80;;;7.53;;
16973;SDS011;8603;46.944;7.412;2023-09-30T01:03:31;14.18;;;7.18;;
16973;SDS011;8603;46.944;7.412;2023-09-30T01:06:06;14.05;;;7.32;;
16973;SDS011;8603;46.944;7.412;2023-09-30T01:08:35;11.95;;;6.68;;
16973;SDS011;8603;46.944;7.412;2023-09-30T01:11:12;10.73;;;6.45;;
16973;SDS011;8603;46.944;7.412;2023-09-30T01:14:32;14.32;;;7.43;;
16973;SDS011;8603;46.944;7.412;2023-09-30T01:17:40;10.15;;;6.43;;
16973;SDS011;8603;46.944;7.412;2023-09-30T01:20:06;11.25;;;6.55;;
16973;SDS011;8603;46.944;7.412;2023-09-30T01:22:37;13.38;;;6.80;;
16973;SDS011;8603;46.944;7.412;2023-09-30T01:25:06;13.52;;;7.35;;
16973;SDS011;8603;46.944;7.412;2023-09-30T01:27:50;15.60;;;7.15;;
16973;SDS011;8603;46.944;7.412;2023-09-30T01:30:41;15.40;;;7.10;;
16973;SDS011;8603;46.944;7.412;2023-09-30T01:33:31;12.45;;;6.65;;
16973;SDS011;8603;46.944;7.412;2023-09-30T01:35:58;14.43;;;7.40;;
16973;SDS011;8603;46.944;7.412;2023-09-30T01:38:24;12.43;;;7.45;;
16973;SDS011;8603;46.944;7.412;2023-09-30T01:40:50;13.60;;;7.63;;
16973;SDS011;8603;46.944;7.412;2023-09-30T01:43:16;10.50;;;6.00;;
16973;SDS011;8603;46.944;7.412;2023-09-30T01:49:10;14.25;;;7.00;;
16973;SDS011;8603;46.944;7.412;2023-09-30T01:51:49;12.55;;;7.13;;
16973;SDS011;8603;46.944;7.412;2023-09-30T01:54:18;13.20;;;7.20;;
16973;SDS011;8603;46.944;7.412;2023-09-30T01:56:46;10.82;;;6.93;;
16973;SDS011;8603;46.944;7.412;2023-09-30T02:02:22;12.88;;;7.20;;
16973;SDS011;8603;46.944;7.412;2023-09-30T02:04:51;14.82;;;7.13;;
16973;SDS011;8603;46.944;7.412;2023-09-30T02:07:18;12.95;;;6.95;;
16973;SDS011;8603;46.944;7.412;2023-09-30T02:09:44;14.73;;;7.50;;
16973;SDS011;8603;46.944;7.412;2023-09-30T02:12:10;12.00;;;6.78;;
16973;SDS011;8603;46.944;7.412;2023-09-30T02:14:38;13.25;;;6.93;;
16973;SDS011;8603;46.944;7.412;2023-09-30T02:17:04;10.02;;;5.85;;
16973;SDS011;8603;46.944;7.412;2023-09-30T02:19:33;13.02;;;6.50;;
16973;SDS011;8603;46.944;7.412;2023-09-30T02:21:59;13.30;;;6.50;;
16973;SDS011;8603;46.944;7.412;2023-09-30T02:24:27;14.40;;;6.63;;
16973;SDS011;8603;46.944;7.412;2023-09-30T02:26:53;12.00;;;6.38;;
16973;SDS011;8603;46.944;7.412;2023-09-30T02:29:19;14.18;;;7.70;;
16973;SDS011;8603;46.944;7.412;2023-09-30T02:31:45;12.52;;;6.85;;
16973;SDS011;8603;46.944;7.412;2023-09-30T02:34:10;12.40;;;6.43;;
16973;SDS011;8603;46.944;7.412;2023-09-30T02:36:38;12.98;;;7.13;;
16973;SDS011;8603;46.944;7.412;2023-09-30T02:39:04;13.73;;;6.70;;
16973;SDS011;8603;46.944;7.412;2023-09-30T02:41:30;11.57;;;6.68;;
16973;SDS011;8603;46.944;7.412;2023-09-30T02:43:56;12.70;;;7.20;;
16973;SDS011;8603;46.944;7.412;2023-09-30T02:46:22;11.43;;;6.55;;
16973;SDS011;8603;46.944;7.412;2023-09-30T02:48:47;16.63;;;7.28;;
16973;SDS011;8603;46.944;7.412;2023-09-30T02:51:13;15.75;;;7.38;;
16973;SDS011;8603;46.944;7.412;2023-09-30T02:53:39;14.45;;;7.35;;
16973;SDS011;8603;46.944;7.412;2023-09-30T02:56:05;12.82;;;7.32;;
16973;SDS011;8603;46.944;7.412;2023-09-30T02:58:31;11.77;;;6.75;;
16973;SDS011;8603;46.944;7.412;2023-09-30T03:00:59;15.55;;;6.95;;
16973;SDS011;8603;46.944;7.412;2023-09-30T03:03:25;14.50;;;7.50;;
16973;SDS011;8603;46.944;7.412;2023-09-30T03:05:52;13.55;;;7.60;;
16973;SDS011;8603;46.944;7.412;2023-09-30T03:08:19;12.55;;;6.93;;
16973;SDS011;8603;46.944;7.412;2023-09-30T03:10:45;12.18;;;7.03;;
16973;SDS011;8603;46.944;7.412;2023-09-30T03:13:11;12.55;;;7.13;;
16973;SDS011;8603;46.944;7.412;2023-09-30T03:15:37;13.00;;;6.88;;
16973;SDS011;8603;46.944;7.412;2023-09-30T03:18:04;10.98;;;6.93;;
16973;SDS011;8603;46.944;7.412;2023-09-30T03:20:30;10.70;;;6.15;;
16973;SDS011;8603;46.944;7.412;2023-09-30T03:22:56;11.23;;;6.80;;
16973;SDS011;8603;46.944;7.412;2023-09-30T03:25:22;14.30;;;6.75;;
16973;SDS011;8603;46.944;7.412;2023-09-30T03:27:48;12.68;;;6.53;;
16973;SDS011;8603;46.944;7.412;2023-09-30T03:30:14;11.00;;;6.55;;
16973;SDS011;8603;46.944;7.412;2023-09-30T03:32:41;16.13;;;7.60;;
16973;SDS011;8603;46.944;7.412;2023-09-30T03:35:08;14.70;;;7.53;;
16973;SDS011;8603;46.944;7.412;2023-09-30T03:37:45;16.90;;;7.88;;
16973;SDS011;8603;46.944;7.412;2023-09-30T03:40:12;16.20;;;8.10;;
16973;SDS011;8603;46.944;7.412;2023-09-30T03:42:45;15.02;;;8.15;;
16973;SDS011;8603;46.944;7.412;2023-09-30T03:45:14;15.73;;;8.48;;
16973;SDS011;8603;46.944;7.412;2023-09-30T03:47:40;19.00;;;8.60;;
16973;SDS011;8603;46.944;7.412;2023-09-30T03:50:06;13.70;;;8.15;;
16973;SDS011;8603;46.944;7.412;2023-09-30T03:52:39;14.15;;;8.13;;
16973;SDS011;8603;46.944;7.412;2023-09-30T03:55:11;14.30;;;8.52;;
16973;SDS011;8603;46.944;7.412;2023-09-30T03:57:48;13.57;;;7.82;;
16973;SDS011;8603;46.944;7.412;2023-09-30T04:00:16;15.05;;;8.32;;
16973;SDS011;8603;46.944;7.412;2023-09-30T04:02:44;11.07;;;7.20;;
16973;SDS011;8603;46.944;7.412;2023-09-30T04:05:13;12.18;;;7.85;;
16973;SDS011;8603;46.944;7.412;2023-09-30T04:07:40;12.38;;;7.65;;
16973;SDS011;8603;46.944;7.412;2023-09-30T04:10:07;11.02;;;7.05;;
16973;SDS011;8603;46.944;7.412;2023-09-30T04:12:34;11.70;;;7.38;;
16973;SDS011;8603;46.944;7.412;2023-09-30T04:15:00;13.35;;;7.55;;
16973;SDS011;8603;46.944;7.412;2023-09-30T04:17:28;13.38;;;7.97;;
16973;SDS011;8603;46.944;7.412;2023-09-30T04:20:00;14.88;;;8.30;;
16973;SDS011;8603;46.944;7.412;2023-09-30T04:22:55;12.18;;;7.40;;
16973;SDS011;8603;46.944;7.412;2023-09-30T04:25:23;15.65;;;8.60;;
16973;SDS011;8603;46.944;7.412;2023-09-30T04:27:49;15.43;;;8.70;;
16973;SDS011;8603;46.944;7.412;2023-09-30T04:30:18;13.63;;;8.23;;
16973;SDS011;8603;46.944;7.412;2023-09-30T04:32:44;15.38;;;8.20;;
16973;SDS011;8603;46.944;7.412;2023-09-30T04:42:54;11.88;;;7.70;;
16973;SDS011;8603;46.944;7.412;2023-09-30T04:45:26;15.93;;;8.63;;
16973;SDS011;8603;46.944;7.412;2023-09-30T04:47:58;14.10;;;7.90;;
16973;SDS011;8603;46.944;7.412;2023-09-30T04:50:33;15.30;;;7.70;;
16973;SDS011;8603;46.944;7.412;2023-09-30T04:53:03;16.65;;;8.07;;
16973;SDS011;8603;46.944;7.412;2023-09-30T04:55:28;14.43;;;8.38;;
16973;SDS011;8603;46.944;7.412;2023-09-30T05:00:58;12.75;;;7.22;;
16973;SDS011;8603;46.944;7.412;2023-09-30T05:03:24;15.95;;;8.27;;
16973;SDS011;8603;46.944;7.412;2023-09-30T05:11:47;13.70;;;7.85;;
16973;SDS011;8603;46.944;7.412;2023-09-30T05:14:15;14.30;;;8.13;;
16973;SDS011;8603;46.944;7.412;2023-09-30T05:17:08;12.90;;;7.60;;
16973;SDS011;8603;46.944;7.412;2023-09-30T05:19:45;13.13;;;7.78;;
16973;SDS011;8603;46.944;7.412;2023-09-30T05:22:15;13.90;;;7.65;;
16973;SDS011;8603;46.944;7.412;2023-09-30T05:24:49;14.82;;;7.60;;
16973;SDS011;8603;46.944;7.412;2023-09-30T05:27:18;13.88;;;7.78;;
16973;SDS011;8603;46.944;7.412;2023-09-30T05:29:46;15.38;;;8.13;;
16973;SDS011;8603;46.944;7.412;2023-09-30T05:32:34;13.88;;;7.90;;
16973;SDS011;8603;46.944;7.412;2023-09-30T05:42:21;17.30;;;8.15;;
16973;SDS011;8603;46.944;7.412;2023-09-30T05:44:55;14.70;;;7.72;;
16973;SDS011;8603;46.944;7.412;2023-09-30T08:32:43;16.05;;;7.00;;
16973;SDS011;8603;46.944;7.412;2023-09-30T08:35:13;12.35;;;6.93;;
16973;SDS011;8603;46.944;7.412;2023-09-30T08:45:38;12.80;;;7.40;;
16973;SDS011;8603;46.944;7.412;2023-09-30T08:48:11;12.50;;;7.30;;
16973;SDS011;8603;46.944;7.412;2023-09-30T08:50:38;14.45;;;7.53;;
16973;SDS011;8603;46.944;7.412;2023-09-30T08:53:06;14.57;;;7.40;;
16973;SDS011;8603;46.944;7.412;2023-09-30T08:55:36;17.15;;;7.40;;
16973;SDS011;8603;46.944;7.412;2023-09-30T08:58:04;13.20;;;7.10;;
16973;SDS011;8603;46.944;7.412;2023-09-30T09:00:30;13.27;;;7.22;;
16973;SDS011;8603;46.944;7.412;2023-09-30T09:02:55;13.45;;;7.22;;
16973;SDS011;8603;46.944;7.412;2023-09-30T09:05:21;10.93;;;6.78;;
16973;SDS011;8603;46.944;7.412;2023-09-30T09:07:47;15.27;;;8.18;;
16973;SDS011;8603;46.944;7.412;2023-09-30T09:10:30;13.60;;;7.97;;
16973;SDS011;8603;46.944;7.412;2023-09-30T09:13:16;12.68;;;7.10;;
16973;SDS011;8603;46.944;7.412;2023-09-30T09:15:41;13.40;;;7.32;;
16973;SDS011;8603;46.944;7.412;2023-09-30T09:18:07;13.82;;;7.15;;
16973;SDS011;8603;46.944;7.412;2023-09-30T09:20:36;15.15;;;8.00;;
16973;SDS011;8603;46.944;7.412;2023-09-30T09:23:02;15.43;;;7.85;;
16973;SDS011;8603;46.944;7.412;2023-09-30T09:25:40;13.82;;;7.38;;
16973;SDS011;8603;46.944;7.412;2023-09-30T09:28:33;14.45;;;7.20;;
16973;SDS011;8603;46.944;7.412;2023-09-30T09:31:21;12.07;;;6.97;;
16973;SDS011;8603;46.944;7.412;2023-09-30T09:33:54;14.52;;;7.30;;
16973;SDS011;8603;46.944;7.412;2023-09-30T09:36:38;14.57;;;6.65;;
16973;SDS011;8603;46.944;7.412;2023-09-30T09:39:15;14.77;;;7.65;;
16973;SDS011;8603;46.944;7.412;2023-09-30T09:42:09;13.48;;;7.13;;
16973;SDS011;8603;46.944;7.412;2023-09-30T09:44:35;14.05;;;7.45;;
16973;SDS011;8603;46.944;7.412;2023-09-30T09:47:08;13.57;;;7.00;;
16973;SDS011;8603;46.944;7.412;2023-09-30T09:49:51;14.00;;;7.03;;
16973;SDS011;8603;46.944;7.412;2023-09-30T09:52:28;13.63;;;7.00;;
16973;SDS011;8603;46.944;7.412;2023-09-30T09:54:55;12.80;;;6.85;;
16973;SDS011;8603;46.944;7.412;2023-09-30T09:57:22;13.80;;;7.10;;
16973;SDS011;8603;46.944;7.412;2023-09-30T09:59:52;15.45;;;7.50;;
16973;SDS011;8603;46.944;7.412;2023-09-30T10:02:26;12.80;;;6.95;;
16973;SDS011;8603;46.944;7.412;2023-09-30T10:04:53;17.77;;;7.38;;
16973;SDS011;8603;46.944;7.412;2023-09-30T10:07:37;14.50;;;7.20;;
16973;SDS011;8603;46.944;7.412;2023-09-30T10:10:14;13.30;;;6.38;;
16973;SDS011;8603;46.944;7.412;2023-09-30T10:12:42;14.40;;;6.95;;
16973;SDS011;8603;46.944;7.412;2023-09-30T10:20:53;12.45;;;6.65;;
16973;SDS011;8603;46.944;7.412;2023-09-30T10:23:34;13.27;;;6.57;;
16973;SDS011;8603;46.944;7.412;2023-09-30T10:34:30;14.82;;;7.20;;
16973;SDS011;8603;46.944;7.412;2023-09-30T10:36:56;15.43;;;6.82;;
16973;SDS011;8603;46.944;7.412;2023-09-30T10:45:15;12.35;;;6.35;;
16973;SDS011;8603;46.944;7.412;2023-09-30T10:50:50;12.00;;;6.18;;
16973;SDS011;8603;46.944;7.412;2023-09-30T10:53:17;14.02;;;6.28;;
16973;SDS011;8603;46.944;7.412;2023-09-30T10:55:46;14.18;;;6.82;;
16973;SDS011;8603;46.944;7.412;2023-09-30T10:58:42;16.08;;;7.20;;
16973;SDS011;8603;46.944;7.412;2023-09-30T11:01:09;14.77;;;6.55;;
16973;SDS011;8603;46.944;7.412;2023-09-30T11:03:35;13.15;;;6.38;;
16973;SDS011;8603;46.944;7.412;2023-09-30T11:06:02;14.35;;;7.47;;
16973;SDS011;8603;46.944;7.412;2023-09-30T11:08:29;13.32;;;6.78;;
16973;SDS011;8603;46.944;7.412;2023-09-30T11:11:17;13.40;;;6.45;;
16973;SDS011;8603;46.944;7.412;2023-09-30T11:13:43;12.77;;;6.25;;
16973;SDS011;8603;46.944;7.412;2023-09-30T11:16:09;13.38;;;6.25;;
16973;SDS011;8603;46.944;7.412;2023-09-30T11:18:35;13.70;;;6.70;;
16973;SDS011;8603;46.944;7.412;2023-09-30T11:21:18;15.35;;;6.97;;
16973;SDS011;8603;46.944;7.412;2023-09-30T11:23:44;14.60;;;7.07;;
16973;SDS011;8603;46.944;7.412;2023-09-30T11:26:13;11.45;;;6.20;;
16973;SDS011;8603;46.944;7.412;2023-09-30T11:28:44;16.05;;;7.25;;
16973;SDS011;8603;46.944;7.412;2023-09-30T11:31:19;12.82;;;6.70;;
16973;SDS011;8603;46.944;7.412;2023-09-30T11:33:48;11.73;;;6.00;;
16973;SDS011;8603;46.944;7.412;2023-09-30T11:36:14;12.57;;;6.22;;
16973;SDS011;8603;46.944;7.412;2023-09-30T11:38:47;14.80;;;7.20;;
16973;SDS011;8603;46.944;7.412;2023-09-30T11:41:38;13.13;;;6.50;;
16973;SDS011;8603;46.944;7.412;2023-09-30T11:44:18;12.82;;;6.95;;
16973;SDS011;8603;46.944;7.412;2023-09-30T11:46:47;12.32;;;6.40;;
16973;SDS011;8603;46.944;7.412;2023-09-30T11:56:05;13.25;;;6.82;;
16973;SDS011;8603;46.944;7.412;2023-09-30T11:58:34;13.05;;;6.18;;
16973;SDS011;8603;46.944;7.412;2023-09-30T12:00:59;13.02;;;6.35;;
16973;SDS011;8603;46.944;7.412;2023-09-30T12:03:26;11.82;;;6.03;;
16973;SDS011;8603;46.944;7.412;2023-09-30T12:06:14;12.82;;;6.28;;
16973;SDS011;8603;46.944;7.412;2023-09-30T12:08:43;13.65;;;6.70;;
16973;SDS011;8603;46.944;7.412;2023-09-30T12:11:08;12.90;;;6.05;;
16973;SDS011;8603;46.944;7.412;2023-09-30T12:13:39;12.57;;;6.45;;
16973;SDS011;8603;46.944;7.412;2023-09-30T12:16:05;12.10;;;5.95;;
16973;SDS011;8603;46.944;7.412;2023-09-30T12:18:39;14.23;;;7.30;;
16973;SDS011;8603;46.944;7.412;2023-09-30T12:21:17;12.20;;;6.32;;
16973;SDS011;8603;46.944;7.412;2023-09-30T12:23:45;13.40;;;6.53;;
16973;SDS011;8603;46.944;7.412;2023-09-30T12:26:13;12.35;;;6.07;;
16973;SDS011;8603;46.944;7.412;2023-09-30T12:28:44;12.50;;;6.53;;
16973;SDS011;8603;46.944;7.412;2023-09-30T12:31:13;12.25;;;6.53;;
16973;SDS011;8603;46.944;7.412;2023-09-30T12:36:29;10.98;;;5.80;;
16973;SDS011;8603;46.944;7.412;2023-09-30T12:38:55;15.23;;;6.55;;
16973;SDS011;8603;46.944;7.412;2023-09-30T12:41:20;13.23;;;6.63;;
16973;SDS011;8603;46.944;7.412;2023-09-30T12:43:46;11.82;;;5.88;;
16973;SDS011;8603;46.944;7.412;2023-09-30T12:46:15;10.77;;;6.00;;
16973;SDS011;8603;46.944;7.412;2023-09-30T12:51:45;12.43;;;6.53;;
16973;SDS011;8603;46.944;7.412;2023-09-30T12:54:10;10.10;;;5.75;;
16973;SDS011;8603;46.944;7.412;2023-09-30T12:56:38;11.75;;;5.72;;
16973;SDS011;8603;46.944;7.412;2023-09-30T12:59:13;12.35;;;6.05;;
16973;SDS011;8603;46.944;7.412;2023-09-30T13:01:39;11.45;;;6.18;;
16973;SDS011;8603;46.944;7.412;2023-09-30T13:04:15;12.95;;;6.75;;
16973;SDS011;8603;46.944;7.412;2023-09-30T13:06:40;14.48;;;6.40;;
16973;SDS011;8603;46.944;7.412;2023-09-30T13:09:06;11.27;;;6.43;;
16973;SDS011;8603;46.944;7.412;2023-09-30T13:11:33;14.27;;;6.50;;
16973;SDS011;8603;46.944;7.412;2023-09-30T13:14:10;10.73;;;6.15;;
16973;SDS011;8603;46.944;7.412;2023-09-30T13:16:47;11.75;;;6.47;;
16973;SDS011;8603;46.944;7.412;2023-09-30T13:19:13;15.15;;;6.60;;
16973;SDS011;8603;46.944;7.412;2023-09-30T13:21:40;10.93;;;6.20;;
16973;SDS011;8603;46.944;7.412;2023-09-30T13:24:06;13.40;;;6.55;;
16973;SDS011;8603;46.944;7.412;2023-09-30T13:26:34;11.77;;;5.82;;
16973;SDS011;8603;46.944;7.412;2023-09-30T13:29:00;11.95;;;6.57;;
16973;SDS011;8603;46.944;7.412;2023-09-30T13:31:26;11.60;;;6.63;;
16973;SDS011;8603;46.944;7.412;2023-09-30T13:33:51;13.15;;;6.35;;
16973;SDS011;8603;46.944;7.412;2023-09-30T13:36:17;11.73;;;6.55;;
16973;SDS011;8603;46.944;7.412;2023-09-30T13:38:43;11.98;;;5.75;;
16973;SDS011;8603;46.944;7.412;2023-09-30T13:41:17;10.55;;;5.97;;
16973;SDS011;8603;46.944;7.412;2023-09-30T13:43:43;10.65;;;5.72;;
16973;SDS011;8603;46.944;7.412;2023-09-30T13:46:08;10.75;;;5.65;;
16973;SDS011;8603;46.944;7.412;2023-09-30T13:48:34;10.77;;;5.63;;
16973;SDS011;8603;46.944;7.412;2023-09-30T13:51:06;9.68;;;5.30;;
16973;SDS011;8603;46.944;7.412;2023-09-30T13:53:32;9.75;;;5.53;;
16973;SDS011;8603;46.944;7.412;2023-09-30T13:55:58;9.68;;;5.50;;
16973;SDS011;8603;46.944;7.412;2023-09-30T13:58:26;11.50;;;5.68;;
16973;SDS011;8603;46.944;7.412;2023-09-30T14:00:52;9.75;;;5.03;;
16973;SDS011;8603;46.944;7.412;2023-09-30T14:03:18;8.23;;;5.30;;
16973;SDS011;8603;46.944;7.412;2023-09-30T14:05:44;10.85;;;5.95;;
16973;SDS011;8603;46.944;7.412;2023-09-30T14:08:11;9.30;;;5.45;;
16973;SDS011;8603;46.944;7.412;2023-09-30T14:10:37;10.07;;;5.45;;
16973;SDS011;8603;46.944;7.412;2023-09-30T14:13:02;9.13;;;4.93;;
16973;SDS011;8603;46.944;7.412;2023-09-30T14:15:29;8.82;;;5.43;;
16973;SDS011;8603;46.944;7.412;2023-09-30T14:20:40;10.02;;;5.80;;
16973;SDS011;8603;46.944;7.412;2023-09-30T14:23:06;11.13;;;5.85;;
16973;SDS011;8603;46.944;7.412;2023-09-30T14:25:31;12.82;;;6.15;;
16973;SDS011;8603;46.944;7.412;2023-09-30T14:27:57;12.05;;;5.80;;
16973;SDS011;8603;46.944;7.412;2023-09-30T14:30:25;11.63;;;5.75;;
16973;SDS011;8603;46.944;7.412;2023-09-30T14:32:50;10.18;;;5.60;;
16973;SDS011;8603;46.944;7.412;2023-09-30T14:35:16;10.73;;;5.57;;
16973;SDS011;8603;46.944;7.412;2023-09-30T14:37:42;11.70;;;5.95;;
16973;SDS011;8603;46.944;7.412;2023-09-30T14:40:11;10.98;;;5.60;;
16973;SDS011;8603;46.944;7.412;2023-09-30T14:42:38;9.93;;;5.40;;
16973;SDS011;8603;46.944;7.412;2023-09-30T14:47:43;10.48;;;5.53;;
16973;SDS011;8603;46.944;7.412;2023-09-30T14:50:38;12.32;;;5.43;;
16973;SDS011;8603;46.944;7.412;2023-09-30T14:53:16;10.05;;;4.97;;
16973;SDS011;8603;46.944;7.412;2023-09-30T14:55:45;9.65;;;4.93;;
16973;SDS011;8603;46.944;7.412;2023-09-30T14:58:10;8.90;;;4.70;;
16973;SDS011;8603;46.944;7.412;2023-09-30T15:00:36;9.90;;;4.65;;
16973;SDS011;8603;46.944;7.412;2023-09-30T15:03:03;7.57;;;4.43;;
16973;SDS011;8603;46.944;7.412;2023-09-30T15:05:30;8.15;;;4.50;;
16973;SDS011;8603;46.944;7.412;2023-09-30T15:07:58;9.85;;;5.00;;
16973;SDS011;8603;46.944;7.412;2023-09-30T15:10:29;9.27;;;5.05;;
16973;SDS011;8603;46.944;7.412;2023-09-30T15:12:58;9.55;;;5.22;;
16973;SDS011;8603;46.944;7.412;2023-09-30T15:15:24;9.27;;;4.80;;
16973;SDS011;8603;46.944;7.412;2023-09-30T15:17:50;9.18;;;5.38;;
16973;SDS011;8603;46.944;7.412;2023-09-30T15:20:16;8.48;;;5.13;;
16973;SDS011;8603;46.944;7.412;2023-09-30T15:22:42;7.22;;;4.43;;
16973;SDS011;8603;46.944;7.412;2023-09-30T15:25:08;9.00;;;4.78;;
16973;SDS011;8603;46.944;7.412;2023-09-30T15:27:34;9.25;;;5.40;;
16973;SDS011;8603;46.944;7.412;2023-09-30T15:30:01;8.93;;;5.40;;
16973;SDS011;8603;46.944;7.412;2023-09-30T15:32:28;8.93;;;5.43;;
16973;SDS011;8603;46.944;7.412;2023-09-30T15:34:53;9.95;;;5.28;;
16973;SDS011;8603;46.944;7.412;2023-09-30T15:37:19;8.93;;;5.35;;
16973;SDS011;8603;46.944;7.412;2023-09-30T15:39:45;11.57;;;5.00;;
16973;SDS011;8603;46.944;7.412;2023-09-30T15:42:12;9.98;;;5.53;;
16973;SDS011;8603;46.944;7.412;2023-09-30T15:47:10;11.52;;;5.07;;
16973;SDS011;8603;46.944;7.412;2023-09-30T15:50:09;12.32;;;5.75;;
16973;SDS011;8603;46.944;7.412;2023-09-30T16:42:28;10.55;;;6.35;;
16973;SDS011;8603;46.944;7.412;2023-09-30T16:48:02;12.25;;;6.30;;
16973;SDS011;8603;46.944;7.412;2023-09-30T16:51:33;11.23;;;6.05;;
16973;SDS011;8603;46.944;7.412;2023-09-30T17:00:41;12.15;;;7.07;;
16973;SDS011;8603;46.944;7.412;2023-09-30T17:06:56;10.30;;;5.47;;
16973;SDS011;8603;46.944;7.412;2023-09-30T17:09:24;10.65;;;5.53;;
16973;SDS011;8603;46.944;7.412;2023-09-30T17:11:50;10.60;;;5.55;;
16973;SDS011;8603;46.944;7.412;2023-09-30T17:51:11;9.00;;;5.28;;
16973;SDS011;8603;46.944;7.412;2023-09-30T17:53:44;11.02;;;5.85;;
16973;SDS011;8603;46.944;7.412;2023-09-30T17:56:18;9.95;;;5.70;;
16973;SDS011;8603;46.944;7.412;2023-09-30T17:58:45;9.10;;;5.55;;
16973;SDS011;8603;46.944;7.412;2023-09-30T18:01:12;12.60;;;6.15;;
16973;SDS011;8603;46.944;7.412;2023-09-30T18:03:39;10.27;;;5.95;;
16973;SDS011;8603;46.944;7.412;2023-09-30T18:06:05;10.57;;;5.97;;
16973;SDS011;8603;46.944;7.412;2023-09-30T18:08:34;9.93;;;5.30;;
16973;SDS011;8603;46.944;7.412;2023-09-30T18:11:01;9.52;;;5.38;;
16973;SDS011;8603;46.944;7.412;2023-09-30T18:13:29;10.65;;;5.85;;
16973;SDS011;8603;46.944;7.412;2023-09-30T18:15:56;9.85;;;5.85;;
16973;SDS011;8603;46.944;7.412;2023-09-30T18:18:22;10.13;;;5.78;;
16973;SDS011;8603;46.944;7.412;2023-09-30T18:20:48;8.80;;;5.47;;
16973;SDS011;8603;46.944;7.412;2023-09-30T18:23:13;11.35;;;5.88;;
16973;SDS011;8603;46.944;7.412;2023-09-30T18:25:42;10.73;;;5.82;;
16973;SDS011;8603;46.944;7.412;2023-09-30T18:28:09;11.77;;;5.50;;
16973;SDS011;8603;46.944;7.412;2023-09-30T18:30:37;9.52;;;4.85;;
16973;SDS011;8603;46.944;7.412;2023-09-30T18:33:05;10.30;;;5.07;;
16973;SDS011;8603;46.944;7.412;2023-09-30T18:35:31;10.95;;;5.43;;
16973;SDS011;8603;46.944;7.412;2023-09-30T18:37:56;9.65;;;5.50;;
16973;SDS011;8603;46.944;7.412;2023-09-30T18:40:22;9.55;;;5.30;;
16973;SDS011;8603;46.944;7.412;2023-09-30T18:42:48;9.18;;;5.68;;
16973;SDS011;8603;46.944;7.412;2023-09-30T18:45:13;8.48;;;4.65;;
16973;SDS011;8603;46.944;7.412;2023-09-30T18:47:39;11.63;;;6.03;;
16973;SDS011;8603;46.944;7.412;2023-09-30T18:50:07;9.32;;;4.97;;
16973;SDS011;8603;46.944;7.412;2023-09-30T18:52:33;9.00;;;5.05;;
16973;SDS011;8603;46.944;7.412;2023-09-30T18:54:58;10.45;;;5.57;;
16973;SDS011;8603;46.944;7.412;2023-09-30T18:57:24;10.13;;;4.97;;
16973;SDS011;8603;46.944;7.412;2023-09-30T18:59:51;10.82;;;5.57;;
16973;SDS011;8603;46.944;7.412;2023-09-30T19:02:19;9.50;;;5.35;;
16973;SDS011;8603;46.944;7.412;2023-09-30T19:04:45;11.70;;;5.80;;
16973;SDS011;8603;46.944;7.412;2023-09-30T19:07:10;10.35;;;5.82;;
16973;SDS011;8603;46.944;7.412;2023-09-30T19:09:36;12.52;;;5.90;;
16973;SDS011;8603;46.944;7.412;2023-09-30T19:12:02;11.10;;;6.75;;
16973;SDS011;8603;46.944;7.412;2023-09-30T19:14:27;10.80;;;6.43;;
16973;SDS011;8603;46.944;7.412;2023-09-30T19:16:53;11.07;;;6.53;;
16973;SDS011;8603;46.944;7.412;2023-09-30T19:19:52;11.70;;;5.80;;
16973;SDS011;8603;46.944;7.412;2023-09-30T19:23:03;9.57;;;6.20;;
16973;SDS011;8603;46.944;7.412;2023-09-30T19:39:48;10.43;;;5.70;;
16973;SDS011;8603;46.944;7.412;2023-09-30T19:42:17;13.40;;;6.25;;
16973;SDS011;8603;46.944;7.412;2023-09-30T19:44:42;13.57;;;8.05;;
16973;SDS011;8603;46.944;7.412;2023-09-30T19:47:11;11.68;;;6.55;;
16973;SDS011;8603;46.944;7.412;2023-09-30T19:49:36;8.65;;;5.90;;
16973;SDS011;8603;46.944;7.412;2023-09-30T19:52:02;9.57;;;5.75;;
16973;SDS011;8603;46.944;7.412;2023-09-30T19:54:29;10.70;;;6.03;;
16973;SDS011;8603;46.944;7.412;2023-09-30T19:56:55;11.43;;;6.28;;
16973;SDS011;8603;46.944;7.412;2023-09-30T19:59:20;12.10;;;6.60;;
16973;SDS011;8603;46.944;7.412;2023-09-30T20:01:47;10.35;;;6.60;;
16973;SDS011;8603;46.944;7.412;2023-09-30T20:04:14;14.23;;;7.43;;
16973;SDS011;8603;46.944;7.412;2023-09-30T20:06:40;12.95;;;7.55;;
16973;SDS011;8603;46.944;7.412;2023-09-30T20:09:06;14.27;;;8.13;;
16973;SDS011;8603;46.944;7.412;2023-09-30T20:11:33;15.13;;;8.10;;
16973;SDS011;8603;46.944;7.412;2023-09-30T20:14:05;13.63;;;8.30;;
16973;SDS011;8603;46.944;7.412;2023-09-30T20:16:33;14.17;;;7.60;;
16973;SDS011;8603;46.944;7.412;2023-09-30T20:19:03;12.75;;;6.82;;
16973;SDS011;8603;46.944;7.412;2023-09-30T20:21:29;10.00;;;6.30;;
16973;SDS011;8603;46.944;7.412;2023-09-30T20:23:55;11.93;;;6.75;;
16973;SDS011;8603;46.944;7.412;2023-09-30T20:26:27;13.10;;;6.67;;
16973;SDS011;8603;46.944;7.412;2023-09-30T20:28:53;13.65;;;6.78;;
16973;SDS011;8603;46.944;7.412;2023-09-30T20:31:20;11.75;;;6.70;;
16973;SDS011;8603;46.944;7.412;2023-09-30T20:33:51;14.40;;;7.50;;
16973;SDS011;8603;46.944;7.412;2023-09-30T20:36:17;12.63;;;7.47;;
16973;SDS011;8603;46.944;7.412;2023-09-30T20:38:43;13.30;;;7.80;;
16973;SDS011;8603;46.944;7.412;2023-09-30T20:41:09;14.53;;;7.93;;
16973;SDS011;8603;46.944;7.412;2023-09-30T20:43:36;17.30;;;8.33;;
16973;SDS011;8603;46.944;7.412;2023-09-30T20:46:05;13.83;;;7.80;;
16973;SDS011;8603;46.944;7.412;2023-09-30T20:48:38;13.17;;;7.03;;
16973;SDS011;8603;46.944;7.412;2023-09-30T20:51:04;13.18;;;7.05;;
16973;SDS011;8603;46.944;7.412;2023-09-30T20:53:31;12.10;;;6.77;;
16973;SDS011;8603;46.944;7.412;2023-09-30T20:56:10;12.20;;;7.00;;
16973;SDS011;8603;46.944;7.412;2023-09-30T20:58:37;12.40;;;7.50;;
16973;SDS011;8603;46.944;7.412;2023-09-30T21:01:06;11.97;;;6.50;;
16973;SDS011;8603;46.944;7.412;2023-09-30T21:03:40;10.95;;;6.57;;
16973;SDS011;8603;46.944;7.412;2023-09-30T21:06:06;14.30;;;6.00;;
16973;SDS011;8603;46.944;7.412;2023-09-30T21:08:33;11.82;;;6.10;;
16973;SDS011;8603;46.944;7.412;2023-09-30T21:11:03;11.73;;;6.60;;
16973;SDS011;8603;46.944;7.412;2023-09-30T21:13:29;14.77;;;6.73;;
16973;SDS011;8603;46.944;7.412;2023-09-30T21:15:55;10.10;;;6.47;;
16973;SDS011;8603;46.944;7.412;2023-09-30T21:18:23;11.63;;;6.07;;
16973;SDS011;8603;46.944;7.412;2023-09-30T21:20:49;13.23;;;6.63;;